sensor_id;sensor_type;location;lat;lon;timestamp;pressure;altitude;pressure_sealevel;temperature;humidity
22389;BME280;11362;48.102;11.620;2023-04-05T00:02:16;95603.38;;;23.70;44.98
22389;BME280;11362;48.102;11.620;2023-04-05T00:04:43;95595.03;;;23.70;45.20
22389;BME280;11362;48.102;11.620;2023-04-05T00:07:09;95588.69;;;23.70;45.06
22389;BME280;11362;48.102;11.620;2023-04-05T00:09:34;95582.34;;;23.69;44.83
22389;BME280;11362;48.102;11.620;2023-04-05T00:11:59;95587.13;;;23.69;45.03
22389;BME280;11362;48.102;11.620;2023-04-05T00:14:25;95593.44;;;23.69;45.08
22389;BME280;11362;48.102;11.620;2023-04-05T00:16:50;95593.44;;;23.69;44.80
22389;BME280;11362;48.102;11.620;2023-04-05T00:19:15;95582.34;;;23.69;45.16
22389;BME280;11362;48.102;11.620;2023-04-05T00:21:41;95591.09;;;23.68;44.64
22389;BME280;11362;48.102;11.620;2023-04-05T00:24:06;95583.94;;;23.70;44.54
22389;BME280;11362;48.102;11.620;2023-04-05T00:26:32;95581.56;;;23.69;45.02
22389;BME280;11362;48.102;11.620;2023-04-05T00:28:57;95587.13;;;23.69;44.82
22389;BME280;11362;48.102;11.620;2023-04-05T00:31:22;95576.03;;;23.69;44.44
22389;BME280;11362;48.102;11.620;2023-04-05T00:33:47;95578.41;;;23.70;45.08
22389;BME280;11362;48.102;11.620;2023-04-05T00:36:15;95572.84;;;23.70;44.88
22389;BME280;11362;48.102;11.620;2023-04-05T00:38:41;95570.47;;;23.69;44.89
22389;BME280;11362;48.102;11.620;2023-04-05T00:41:07;95562.16;;;23.69;44.96
22389;BME280;11362;48.102;11.620;2023-04-05T00:43:33;95573.25;;;23.69;44.83
22389;BME280;11362;48.102;11.620;2023-04-05T00:46:00;95569.69;;;23.68;44.79
22389;BME280;11362;48.102;11.620;2023-04-05T00:48:25;95566.91;;;23.68;44.98
22389;BME280;11362;48.102;11.620;2023-04-05T00:50:51;95558.59;;;23.68;44.79
22389;BME280;11362;48.102;11.620;2023-04-05T00:53:20;95562.16;;;23.69;44.61
22389;BME280;11362;48.102;11.620;2023-04-05T00:55:46;95557.38;;;23.69;44.49
22389;BME280;11362;48.102;11.620;2023-04-05T00:58:12;95554.63;;;23.69;44.46
22389;BME280;11362;48.102;11.620;2023-04-05T01:00:37;95559.38;;;23.69;44.64
22389;BME280;11362;48.102;11.620;2023-04-05T01:03:04;95547.50;;;23.68;44.39
22389;BME280;11362;48.102;11.620;2023-04-05T01:05:43;95559.78;;;23.67;44.31
22389;BME280;11362;48.102;11.620;2023-04-05T01:10:38;95554.25;;;23.67;44.45
22389;BME280;11362;48.102;11.620;2023-04-05T01:13:06;95549.09;;;23.66;44.37
22389;BME280;11362;48.102;11.620;2023-04-05T01:15:32;95553.03;;;23.68;44.22
22389;BME280;11362;48.102;11.620;2023-04-05T01:17:57;95545.91;;;23.67;43.72
22389;BME280;11362;48.102;11.620;2023-04-05T01:20:23;95539.59;;;23.67;43.98
22389;BME280;11362;48.102;11.620;2023-04-05T01:26:03;95528.09;;;23.68;43.89
22389;BME280;11362;48.102;11.620;2023-04-05T01:31:22;95536.41;;;23.68;43.84
22389;BME280;11362;48.102;11.620;2023-04-05T01:34:16;95525.31;;;23.68;43.72
22389;BME280;11362;48.102;11.620;2023-04-05T01:36:48;95519.75;;;23.68;43.80
22389;BME280;11362;48.102;11.620;2023-04-05T01:39:16;95519.00;;;23.68;43.69
22389;BME280;11362;48.102;11.620;2023-04-05T01:41:42;95512.66;;;23.67;43.85
22389;BME280;11362;48.102;11.620;2023-04-05T01:44:07;95515.41;;;23.67;43.84
22389;BME280;11362;48.102;11.620;2023-04-05T01:46:32;95520.97;;;23.67;43.58
22389;BME280;11362;48.102;11.620;2023-04-05T01:48:58;95515.41;;;23.67;43.53
22389;BME280;11362;48.102;11.620;2023-04-05T01:51:23;95511.88;;;23.67;43.54
22389;BME280;11362;48.102;11.620;2023-04-05T01:53:48;95517.41;;;23.67;43.63
22389;BME280;11362;48.102;11.620;2023-04-05T01:56:14;95515.03;;;23.65;43.42
22389;BME280;11362;48.102;11.620;2023-04-05T01:58:39;95512.66;;;23.67;43.36
22389;BME280;11362;48.102;11.620;2023-04-05T02:01:04;95510.28;;;23.66;43.34
22389;BME280;11362;48.102;11.620;2023-04-05T02:03:30;95501.56;;;23.67;43.44
22389;BME280;11362;48.102;11.620;2023-04-05T02:05:56;95507.50;;;23.66;43.32
22389;BME280;11362;48.102;11.620;2023-04-05T02:08:21;95503.97;;;23.65;43.49
22389;BME280;11362;48.102;11.620;2023-04-05T02:10:46;95501.19;;;23.65;43.29
22389;BME280;11362;48.102;11.620;2023-04-05T02:13:12;95505.94;;;23.65;43.24
22389;BME280;11362;48.102;11.620;2023-04-05T02:15:37;95507.91;;;23.68;43.16
22389;BME280;11362;48.102;11.620;2023-04-05T02:18:02;95505.53;;;23.66;42.77
22389;BME280;11362;48.102;11.620;2023-04-05T02:20:28;95498.78;;;23.67;42.96
22389;BME280;11362;48.102;11.620;2023-04-05T02:22:53;95497.56;;;23.68;42.89
22389;BME280;11362;48.102;11.620;2023-04-05T02:25:19;95486.91;;;23.67;42.88
22389;BME280;11362;48.102;11.620;2023-04-05T02:27:45;95488.88;;;23.66;42.83
22389;BME280;11362;48.102;11.620;2023-04-05T02:30:10;95493.22;;;23.67;42.76
22389;BME280;11362;48.102;11.620;2023-04-05T02:32:36;95490.44;;;23.67;42.72
22389;BME280;11362;48.102;11.620;2023-04-05T02:35:01;95482.13;;;23.67;42.89
22389;BME280;11362;48.102;11.620;2023-04-05T02:37:27;95484.91;;;23.67;42.40
22389;BME280;11362;48.102;11.620;2023-04-05T02:39:52;95477.78;;;23.66;42.62
22389;BME280;11362;48.102;11.620;2023-04-05T02:42:18;95481.41;;;23.63;42.57
22389;BME280;11362;48.102;11.620;2023-04-05T02:44:43;95473.44;;;23.65;42.53
22389;BME280;11362;48.102;11.620;2023-04-05T02:47:08;95473.09;;;23.63;42.11
22389;BME280;11362;48.102;11.620;2023-04-05T02:49:33;95480.97;;;23.65;42.39
22389;BME280;11362;48.102;11.620;2023-04-05T02:51:59;95484.53;;;23.65;41.93
22389;BME280;11362;48.102;11.620;2023-04-05T02:54:24;95484.53;;;23.65;42.34
22389;BME280;11362;48.102;11.620;2023-04-05T02:56:49;95487.31;;;23.65;42.43
22389;BME280;11362;48.102;11.620;2023-04-05T02:59:15;95482.13;;;23.67;42.31
22389;BME280;11362;48.102;11.620;2023-04-05T03:01:41;95480.56;;;23.66;42.18
22389;BME280;11362;48.102;11.620;2023-04-05T03:04:07;95478.19;;;23.65;41.91
22389;BME280;11362;48.102;11.620;2023-04-05T03:06:33;95480.19;;;23.64;42.01
22389;BME280;11362;48.102;11.620;2023-04-05T03:08:58;95482.53;;;23.66;42.05
22389;BME280;11362;48.102;11.620;2023-04-05T03:11:23;95481.78;;;23.65;42.09
22389;BME280;11362;48.102;11.620;2023-04-05T03:13:49;95481.78;;;23.65;41.75
22389;BME280;11362;48.102;11.620;2023-04-05T03:16:14;95475.41;;;23.65;41.87
22389;BME280;11362;48.102;11.620;2023-04-05T03:18:39;95473.44;;;23.65;41.72
22389;BME280;11362;48.102;11.620;2023-04-05T03:21:05;95463.56;;;23.64;41.88
22389;BME280;11362;48.102;11.620;2023-04-05T03:23:30;95469.09;;;23.64;41.68
22389;BME280;11362;48.102;11.620;2023-04-05T03:25:59;95472.25;;;23.66;41.56
22389;BME280;11362;48.102;11.620;2023-04-05T03:28:25;95467.53;;;23.63;41.53
22389;BME280;11362;48.102;11.620;2023-04-05T03:30:51;95467.91;;;23.65;41.51
22389;BME280;11362;48.102;11.620;2023-04-05T03:33:17;95473.44;;;23.65;41.47
22389;BME280;11362;48.102;11.620;2023-04-05T03:35:43;95467.91;;;23.65;41.30
22389;BME280;11362;48.102;11.620;2023-04-05T03:38:08;95460.78;;;23.64;41.32
22389;BME280;11362;48.102;11.620;2023-04-05T03:40:33;95458.00;;;23.64;41.26
22389;BME280;11362;48.102;11.620;2023-04-05T03:42:59;95456.81;;;23.65;41.23
22389;BME280;11362;48.102;11.620;2023-04-05T03:45:24;95456.00;;;23.65;41.29
22389;BME280;11362;48.102;11.620;2023-04-05T03:47:50;95456.81;;;23.65;41.07
22389;BME280;11362;48.102;11.620;2023-04-05T03:50:15;95454.03;;;23.65;41.13
22389;BME280;11362;48.102;11.620;2023-04-05T03:52:40;95468.66;;;23.66;40.96
22389;BME280;11362;48.102;11.620;2023-04-05T03:55:06;95458.00;;;23.64;40.99
22389;BME280;11362;48.102;11.620;2023-04-05T03:57:31;95472.25;;;23.66;40.89
22389;BME280;11362;48.102;11.620;2023-04-05T03:59:57;95465.13;;;23.65;40.83
22389;BME280;11362;48.102;11.620;2023-04-05T04:02:22;95463.94;;;23.66;40.69
22389;BME280;11362;48.102;11.620;2023-04-05T04:04:47;95463.94;;;23.66;40.77
22389;BME280;11362;48.102;11.620;2023-04-05T04:07:13;95468.66;;;23.66;40.53
22389;BME280;11362;48.102;11.620;2023-04-05T04:09:38;95465.13;;;23.65;40.58
22389;BME280;11362;48.102;11.620;2023-04-05T04:12:04;95459.59;;;23.65;40.55
22389;BME280;11362;48.102;11.620;2023-04-05T04:14:29;95469.09;;;23.64;40.24
22389;BME280;11362;48.102;11.620;2023-04-05T04:16:54;95461.22;;;23.59;39.76
22389;BME280;11362;48.102;11.620;2023-04-05T04:19:20;95461.22;;;23.59;40.00
22389;BME280;11362;48.102;11.620;2023-04-05T04:21:45;95449.34;;;23.59;40.10
22389;BME280;11362;48.102;11.620;2023-04-05T04:24:10;95453.28;;;23.61;40.04
22389;BME280;11362;48.102;11.620;2023-04-05T04:26:36;95450.50;;;23.61;39.92
22389;BME280;11362;48.102;11.620;2023-04-05T04:29:01;95451.72;;;23.60;39.95
22389;BME280;11362;48.102;11.620;2023-04-05T04:31:26;95453.28;;;23.61;39.95
22389;BME280;11362;48.102;11.620;2023-04-05T04:33:51;95454.84;;;23.62;39.90
22389;BME280;11362;48.102;11.620;2023-04-05T04:36:17;95447.72;;;23.61;39.91
22389;BME280;11362;48.102;11.620;2023-04-05T04:38:42;95453.28;;;23.61;39.95
22389;BME280;11362;48.102;11.620;2023-04-05T04:41:12;95439.41;;;23.61;39.81
22389;BME280;11362;48.102;11.620;2023-04-05T04:43:37;95449.28;;;23.62;39.72
22389;BME280;11362;48.102;11.620;2023-04-05T04:46:03;95443.75;;;23.62;39.68
22389;BME280;11362;48.102;11.620;2023-04-05T04:48:28;95450.09;;;23.63;39.64
22389;BME280;11362;48.102;11.620;2023-04-05T04:50:53;95443.75;;;23.62;39.52
22389;BME280;11362;48.102;11.620;2023-04-05T04:53:18;95443.75;;;23.62;39.47
22389;BME280;11362;48.102;11.620;2023-04-05T04:55:44;95444.56;;;23.63;39.45
22389;BME280;11362;48.102;11.620;2023-04-05T04:58:11;95428.72;;;23.63;39.32
22389;BME280;11362;48.102;11.620;2023-04-05T05:00:38;95425.13;;;23.63;39.28
22389;BME280;11362;48.102;11.620;2023-04-05T05:03:03;95431.88;;;23.62;39.27
22389;BME280;11362;48.102;11.620;2023-04-05T05:05:28;95429.88;;;23.62;39.20
22389;BME280;11362;48.102;11.620;2023-04-05T05:07:54;95436.63;;;23.61;39.13
22389;BME280;11362;48.102;11.620;2023-04-05T05:10:20;95438.19;;;23.62;38.88
22389;BME280;11362;48.102;11.620;2023-04-05T05:12:45;95435.44;;;23.62;38.80
22389;BME280;11362;48.102;11.620;2023-04-05T05:15:11;95432.66;;;23.62;38.85
22389;BME280;11362;48.102;11.620;2023-04-05T05:17:37;95444.50;;;23.66;38.73
22389;BME280;11362;48.102;11.620;2023-04-05T05:20:02;95439.31;;;23.68;38.63
22389;BME280;11362;48.102;11.620;2023-04-05T05:22:28;95433.78;;;23.68;38.64
22389;BME280;11362;48.102;11.620;2023-04-05T05:24:53;95426.72;;;23.64;38.59
22389;BME280;11362;48.102;11.620;2023-04-05T05:27:18;95457.53;;;23.69;38.63
22389;BME280;11362;48.102;11.620;2023-04-05T05:29:44;95455.16;;;23.71;38.49
22389;BME280;11362;48.102;11.620;2023-04-05T05:32:09;95453.97;;;23.72;38.73
22389;BME280;11362;48.102;11.620;2023-04-05T05:34:34;95458.66;;;23.75;38.80
22389;BME280;11362;48.102;11.620;2023-04-05T05:37:00;95460.22;;;23.76;38.80
22389;BME280;11362;48.102;11.620;2023-04-05T05:39:25;95461.00;;;23.80;38.69
22389;BME280;11362;48.102;11.620;2023-04-05T05:41:50;95463.53;;;23.68;36.95
22389;BME280;11362;48.102;11.620;2023-04-05T05:44:15;95468.28;;;23.67;37.10
22389;BME280;11362;48.102;11.620;2023-04-05T05:46:41;95463.53;;;23.68;36.94
22389;BME280;11362;48.102;11.620;2023-04-05T05:49:06;95471.41;;;23.69;37.13
22389;BME280;11362;48.102;11.620;2023-04-05T05:51:31;95458.75;;;23.68;37.24
22389;BME280;11362;48.102;11.620;2023-04-05T05:53:57;95470.22;;;23.70;37.00
22389;BME280;11362;48.102;11.620;2023-04-05T05:56:22;95480.53;;;23.70;36.76
22389;BME280;11362;48.102;11.620;2023-04-05T05:58:47;95478.56;;;23.70;36.92
22389;BME280;11362;48.102;11.620;2023-04-05T06:01:13;95479.31;;;23.71;36.98
22389;BME280;11362;48.102;11.620;2023-04-05T06:03:38;95479.31;;;23.71;36.97
22389;BME280;11362;48.102;11.620;2023-04-05T06:06:03;95473.00;;;23.70;36.74
22389;BME280;11362;48.102;11.620;2023-04-05T06:08:28;95482.91;;;23.71;36.92
22389;BME280;11362;48.102;11.620;2023-04-05T06:10:54;95483.31;;;23.70;37.05
22389;BME280;11362;48.102;11.620;2023-04-05T06:13:19;95482.91;;;23.71;37.19
22389;BME280;11362;48.102;11.620;2023-04-05T06:15:46;95482.47;;;23.73;36.72
22389;BME280;11362;48.102;11.620;2023-04-05T06:18:12;95492.78;;;23.72;36.89
22389;BME280;11362;48.102;11.620;2023-04-05T06:20:38;95484.06;;;23.74;36.82
22389;BME280;11362;48.102;11.620;2023-04-05T06:23:03;95495.16;;;23.74;36.59
22389;BME280;11362;48.102;11.620;2023-04-05T06:25:28;95493.16;;;23.74;36.80
22389;BME280;11362;48.102;11.620;2023-04-05T06:27:53;95493.94;;;23.75;36.69
22389;BME280;11362;48.102;11.620;2023-04-05T06:30:19;95487.19;;;23.76;36.72
22389;BME280;11362;48.102;11.620;2023-04-05T06:32:44;95515.09;;;23.15;28.54
22389;BME280;11362;48.102;11.620;2023-04-05T06:35:09;95509.19;;;20.99;24.48
22389;BME280;11362;48.102;11.620;2023-04-05T06:37:35;95509.97;;;21.10;24.95
22389;BME280;11362;48.102;11.620;2023-04-05T06:40:00;95496.03;;;21.83;25.70
22389;BME280;11362;48.102;11.620;2023-04-05T06:42:25;95487.13;;;22.34;25.87
22389;BME280;11362;48.102;11.620;2023-04-05T06:44:51;95506.78;;;22.60;26.61
22389;BME280;11362;48.102;11.620;2023-04-05T06:47:16;95491.25;;;22.77;27.40
22389;BME280;11362;48.102;11.620;2023-04-05T06:49:41;95483.63;;;22.88;27.95
22389;BME280;11362;48.102;11.620;2023-04-05T06:52:07;95483.19;;;22.96;28.40
22389;BME280;11362;48.102;11.620;2023-04-05T06:54:33;95481.56;;;23.02;28.66
22389;BME280;11362;48.102;11.620;2023-04-05T06:56:58;95481.06;;;23.11;29.44
22389;BME280;11362;48.102;11.620;2023-04-05T06:59:23;95479.88;;;23.15;29.60
22389;BME280;11362;48.102;11.620;2023-04-05T07:01:49;95475.88;;;23.20;29.32
22389;BME280;11362;48.102;11.620;2023-04-05T07:04:14;95482.19;;;23.24;29.83
22389;BME280;11362;48.102;11.620;2023-04-05T07:06:39;95481.34;;;23.27;30.27
22389;BME280;11362;48.102;11.620;2023-04-05T07:09:05;95470.66;;;23.29;30.34
22389;BME280;11362;48.102;11.620;2023-04-05T07:11:30;95473.81;;;23.31;30.21
22389;BME280;11362;48.102;11.620;2023-04-05T07:13:55;95477.34;;;23.35;30.36
22389;BME280;11362;48.102;11.620;2023-04-05T07:16:21;95477.72;;;23.37;30.42
22389;BME280;11362;48.102;11.620;2023-04-05T07:18:46;95471.34;;;23.39;30.56
22389;BME280;11362;48.102;11.620;2023-04-05T07:21:11;95473.31;;;23.42;30.55
22389;BME280;11362;48.102;11.620;2023-04-05T07:23:36;95474.88;;;23.43;30.68
22389;BME280;11362;48.102;11.620;2023-04-05T07:26:02;95471.25;;;23.46;30.93
22389;BME280;11362;48.102;11.620;2023-04-05T07:28:27;95473.22;;;23.49;30.91
22389;BME280;11362;48.102;11.620;2023-04-05T07:30:53;95477.16;;;23.52;31.12
22389;BME280;11362;48.102;11.620;2023-04-05T07:33:18;95473.97;;;23.53;31.10
22389;BME280;11362;48.102;11.620;2023-04-05T07:35:43;95468.38;;;23.57;31.25
22389;BME280;11362;48.102;11.620;2023-04-05T07:38:08;95472.72;;;23.58;31.35
22389;BME280;11362;48.102;11.620;2023-04-05T07:40:34;95475.09;;;23.59;31.41
22389;BME280;11362;48.102;11.620;2023-04-05T07:42:59;95482.97;;;23.64;31.65
22389;BME280;11362;48.102;11.620;2023-04-05T07:45:24;95485.72;;;23.68;31.76
22389;BME280;11362;48.102;11.620;2023-04-05T07:47:49;95487.28;;;23.69;31.75
22389;BME280;11362;48.102;11.620;2023-04-05T07:50:15;95490.78;;;23.73;31.75
22389;BME280;11362;48.102;11.620;2023-04-05T07:52:41;95487.59;;;23.74;31.75
22389;BME280;11362;48.102;11.620;2023-04-05T07:55:08;95486.78;;;23.77;31.96
22389;BME280;11362;48.102;11.620;2023-04-05T07:57:33;95489.53;;;23.81;31.97
22389;BME280;11362;48.102;11.620;2023-04-05T07:59:58;95489.50;;;23.84;32.08
22389;BME280;11362;48.102;11.620;2023-04-05T08:02:24;95456.97;;;23.88;32.00
22389;BME280;11362;48.102;11.620;2023-04-05T08:04:49;95468.84;;;23.89;32.02
22389;BME280;11362;48.102;11.620;2023-04-05T08:07:14;95467.22;;;23.91;31.93
22389;BME280;11362;48.102;11.620;2023-04-05T08:09:40;95487.84;;;23.90;32.03
22389;BME280;11362;48.102;11.620;2023-04-05T08:12:05;95489.41;;;23.91;31.81
22389;BME280;11362;48.102;11.620;2023-04-05T08:14:30;95492.19;;;23.91;31.89
22389;BME280;11362;48.102;11.620;2023-04-05T08:16:56;95494.19;;;23.91;31.95
22389;BME280;11362;48.102;11.620;2023-04-05T08:19:21;95486.28;;;23.89;32.24
22389;BME280;11362;48.102;11.620;2023-04-05T08:21:46;95485.06;;;23.90;32.14
22389;BME280;11362;48.102;11.620;2023-04-05T08:24:12;95487.44;;;23.92;32.07
22389;BME280;11362;48.102;11.620;2023-04-05T08:26:37;95485.47;;;23.92;31.90
22389;BME280;11362;48.102;11.620;2023-04-05T08:29:02;95482.69;;;23.92;32.06
22389;BME280;11362;48.102;11.620;2023-04-05T08:31:28;95487.03;;;23.93;32.14
22389;BME280;11362;48.102;11.620;2023-04-05T08:33:53;95482.25;;;23.94;32.14
22389;BME280;11362;48.102;11.620;2023-04-05T08:36:18;95490.19;;;23.95;32.16
22389;BME280;11362;48.102;11.620;2023-04-05T08:38:43;95483.06;;;23.94;32.15
22389;BME280;11362;48.102;11.620;2023-04-05T08:41:20;95489.78;;;23.97;32.00
22389;BME280;11362;48.102;11.620;2023-04-05T08:43:59;95485.47;;;23.92;32.14
22389;BME280;11362;48.102;11.620;2023-04-05T08:46:25;95487.47;;;23.88;32.32
22389;BME280;11362;48.102;11.620;2023-04-05T08:48:51;95484.25;;;23.93;32.23
22389;BME280;11362;48.102;11.620;2023-04-05T08:51:21;95483.47;;;23.93;32.21
22389;BME280;11362;48.102;11.620;2023-04-05T08:53:47;95487.06;;;23.90;32.16
22389;BME280;11362;48.102;11.620;2023-04-05T08:56:19;95483.13;;;23.87;32.08
22389;BME280;11362;48.102;11.620;2023-04-05T08:58:56;95479.16;;;23.88;32.36
22389;BME280;11362;48.102;11.620;2023-04-05T09:01:27;95477.50;;;23.94;31.94
22389;BME280;11362;48.102;11.620;2023-04-05T09:04:03;95483.06;;;23.94;32.40
22389;BME280;11362;48.102;11.620;2023-04-05T09:06:29;95478.72;;;23.93;32.21
22389;BME280;11362;48.102;11.620;2023-04-05T09:08:58;95492.63;;;23.90;32.40
22389;BME280;11362;48.102;11.620;2023-04-05T09:11:24;95485.03;;;23.94;32.37
22389;BME280;11362;48.102;11.620;2023-04-05T09:13:49;95482.97;;;24.01;32.36
22389;BME280;11362;48.102;11.620;2023-04-05T09:16:15;95483.78;;;23.98;32.58
22389;BME280;11362;48.102;11.620;2023-04-05T09:18:41;95480.66;;;23.96;32.64
22389;BME280;11362;48.102;11.620;2023-04-05T09:21:06;95492.94;;;23.95;32.83
22389;BME280;11362;48.102;11.620;2023-04-05T09:23:35;95485.78;;;23.98;32.78
22389;BME280;11362;48.102;11.620;2023-04-05T09:26:21;95484.63;;;23.95;32.95
22389;BME280;11362;48.102;11.620;2023-04-05T09:28:46;95482.22;;;23.97;33.00
22389;BME280;11362;48.102;11.620;2023-04-05T09:31:31;95476.66;;;23.97;33.00
22389;BME280;11362;48.102;11.620;2023-04-05T09:33:58;95493.31;;;23.97;32.97
22389;BME280;11362;48.102;11.620;2023-04-05T09:36:23;95481.00;;;23.98;33.08
22389;BME280;11362;48.102;11.620;2023-04-05T09:38:48;95479.84;;;23.99;33.09
22389;BME280;11362;48.102;11.620;2023-04-05T09:41:14;95485.38;;;23.99;32.99
22389;BME280;11362;48.102;11.620;2023-04-05T09:43:40;95477.06;;;23.99;32.62
22389;BME280;11362;48.102;11.620;2023-04-05T09:46:06;95480.59;;;24.00;32.97
22389;BME280;11362;48.102;11.620;2023-04-05T09:48:46;95478.63;;;24.00;32.86
22389;BME280;11362;48.102;11.620;2023-04-05T09:51:15;95480.59;;;24.00;32.76
22389;BME280;11362;48.102;11.620;2023-04-05T09:56:30;95475.84;;;24.00;32.93
22389;BME280;11362;48.102;11.620;2023-04-05T09:59:06;95481.75;;;24.02;32.98
22389;BME280;11362;48.102;11.620;2023-04-05T10:01:32;95474.19;;;24.06;32.92
22389;BME280;11362;48.102;11.620;2023-04-05T10:03:58;95481.38;;;24.04;32.91
22389;BME280;11362;48.102;11.620;2023-04-05T10:06:33;95474.19;;;24.06;32.81
22389;BME280;11362;48.102;11.620;2023-04-05T10:08:59;95465.44;;;24.08;32.82
22389;BME280;11362;48.102;11.620;2023-04-05T10:11:25;95465.88;;;24.06;32.61
22389;BME280;11362;48.102;11.620;2023-04-05T10:13:50;95467.44;;;24.07;32.71
22389;BME280;11362;48.102;11.620;2023-04-05T10:16:20;95467.44;;;24.07;32.69
22389;BME280;11362;48.102;11.620;2023-04-05T10:18:49;95467.00;;;24.09;32.61
22389;BME280;11362;48.102;11.620;2023-04-05T10:21:20;95467.00;;;24.09;32.68
22389;BME280;11362;48.102;11.620;2023-04-05T10:23:53;95456.72;;;24.09;32.61
22389;BME280;11362;48.102;11.620;2023-04-05T10:26:25;95456.72;;;24.09;32.65
22389;BME280;11362;48.102;11.620;2023-04-05T10:29:00;95460.69;;;24.08;32.58
22389;BME280;11362;48.102;11.620;2023-04-05T10:31:48;95460.28;;;24.10;32.49
22389;BME280;11362;48.102;11.620;2023-04-05T10:34:26;95456.34;;;24.07;32.79
22389;BME280;11362;48.102;11.620;2023-04-05T10:36:57;95463.47;;;24.08;32.59
22389;BME280;11362;48.102;11.620;2023-04-05T10:39:32;95456.72;;;24.09;32.46
22389;BME280;11362;48.102;11.620;2023-04-05T10:42:21;95486.03;;;24.10;32.55
22389;BME280;11362;48.102;11.620;2023-04-05T10:44:52;95472.56;;;24.09;32.68
22389;BME280;11362;48.102;11.620;2023-04-05T10:47:22;95458.72;;;24.05;32.14
22389;BME280;11362;48.102;11.620;2023-04-05T10:49:55;95448.09;;;24.00;31.44
22389;BME280;11362;48.102;11.620;2023-04-05T10:52:21;95441.75;;;24.00;30.54
22389;BME280;11362;48.102;11.620;2023-04-05T10:54:48;95442.16;;;23.98;30.58
22389;BME280;11362;48.102;11.620;2023-04-05T10:57:14;95444.94;;;23.98;30.67
22389;BME280;11362;48.102;11.620;2023-04-05T10:59:44;95440.59;;;23.97;30.77
22389;BME280;11362;48.102;11.620;2023-04-05T11:02:10;95440.59;;;23.97;31.09
22389;BME280;11362;48.102;11.620;2023-04-05T11:04:36;95447.31;;;24.00;30.83
22389;BME280;11362;48.102;11.620;2023-04-05T11:07:14;95412.81;;;24.01;30.83
22389;BME280;11362;48.102;11.620;2023-04-05T11:18:01;95421.13;;;24.01;30.78
22389;BME280;11362;48.102;11.620;2023-04-05T11:20:38;95427.47;;;24.01;30.87
22389;BME280;11362;48.102;11.620;2023-04-05T11:23:03;95425.88;;;24.04;30.95
22389;BME280;11362;48.102;11.620;2023-04-05T11:25:29;95419.88;;;24.05;30.93
22389;BME280;11362;48.102;11.620;2023-04-05T11:28:00;95425.44;;;24.05;31.32
22389;BME280;11362;48.102;11.620;2023-04-05T11:30:45;95427.03;;;24.06;31.01
22389;BME280;11362;48.102;11.620;2023-04-05T11:33:10;95421.09;;;24.04;31.23
22389;BME280;11362;48.102;11.620;2023-04-05T11:35:38;95425.81;;;24.07;31.36
22389;BME280;11362;48.102;11.620;2023-04-05T11:40:30;95421.09;;;24.04;31.32
22389;BME280;11362;48.102;11.620;2023-04-05T11:43:05;95415.16;;;24.02;31.38
22389;BME280;11362;48.102;11.620;2023-04-05T11:45:31;95418.31;;;24.04;31.47
22389;BME280;11362;48.102;11.620;2023-04-05T11:48:19;95415.53;;;24.04;31.18
22389;BME280;11362;48.102;11.620;2023-04-05T11:50:44;95408.41;;;24.03;31.19
22389;BME280;11362;48.102;11.620;2023-04-05T11:53:13;95410.78;;;24.05;30.84
22389;BME280;11362;48.102;11.620;2023-04-05T11:55:42;95406.84;;;24.02;30.85
22389;BME280;11362;48.102;11.620;2023-04-05T11:58:18;95409.63;;;24.02;31.04
22389;BME280;11362;48.102;11.620;2023-04-05T12:00:45;95404.88;;;24.03;31.07
22389;BME280;11362;48.102;11.620;2023-04-05T12:03:12;95408.00;;;24.05;30.91
22389;BME280;11362;48.102;11.620;2023-04-05T12:06:04;95403.66;;;24.04;31.11
22389;BME280;11362;48.102;11.620;2023-04-05T12:11:07;95402.91;;;24.00;31.08
22389;BME280;11362;48.102;11.620;2023-04-05T12:13:32;95411.63;;;23.98;31.09
22389;BME280;11362;48.102;11.620;2023-04-05T12:15:59;95406.84;;;24.02;31.10
22389;BME280;11362;48.102;11.620;2023-04-05T12:18:25;95395.75;;;24.02;31.11
22389;BME280;11362;48.102;11.620;2023-04-05T12:20:50;95407.69;;;23.99;31.46
22389;BME280;11362;48.102;11.620;2023-04-05T12:23:16;95399.38;;;23.99;31.24
22389;BME280;11362;48.102;11.620;2023-04-05T12:25:45;95393.38;;;24.01;31.22
22389;BME280;11362;48.102;11.620;2023-04-05T12:28:10;95396.94;;;24.01;31.13
22389;BME280;11362;48.102;11.620;2023-04-05T12:30:47;95394.13;;;24.05;31.16
22389;BME280;11362;48.102;11.620;2023-04-05T12:33:12;95394.50;;;24.07;31.35
22389;BME280;11362;48.102;11.620;2023-04-05T12:35:38;95399.28;;;24.06;31.22
22389;BME280;11362;48.102;11.620;2023-04-05T12:38:04;95386.97;;;24.07;31.34
22389;BME280;11362;48.102;11.620;2023-04-05T12:40:30;95389.31;;;24.09;31.22
22389;BME280;11362;48.102;11.620;2023-04-05T12:45:28;95389.75;;;24.07;31.28
22389;BME280;11362;48.102;11.620;2023-04-05T12:47:57;95386.97;;;24.07;31.35
22389;BME280;11362;48.102;11.620;2023-04-05T12:50:30;95376.22;;;24.09;31.27
22389;BME280;11362;48.102;11.620;2023-04-05T12:53:00;95376.22;;;24.09;31.38
22389;BME280;11362;48.102;11.620;2023-04-05T12:55:29;95386.13;;;24.10;31.15
22389;BME280;11362;48.102;11.620;2023-04-05T12:57:59;95378.59;;;24.11;31.28
22389;BME280;11362;48.102;11.620;2023-04-05T13:00:26;95381.38;;;24.11;31.26
22389;BME280;11362;48.102;11.620;2023-04-05T13:02:52;95375.81;;;24.11;31.33
22389;BME280;11362;48.102;11.620;2023-04-05T13:05:28;95372.59;;;24.12;31.33
22389;BME280;11362;48.102;11.620;2023-04-05T13:07:54;95379.75;;;24.13;31.11
22389;BME280;11362;48.102;11.620;2023-04-05T13:10:22;95371.44;;;24.13;31.36
22389;BME280;11362;48.102;11.620;2023-04-05T13:12:48;95336.91;;;24.14;31.16
22389;BME280;11362;48.102;11.620;2023-04-05T13:15:16;95344.03;;;24.15;31.34
22389;BME280;11362;48.102;11.620;2023-04-05T13:17:43;95350.34;;;24.16;31.27